createdAt,value
2022-08-22T00:01:31.579Z,16.13
2022-08-22T00:03:00.025Z,18.15
2022-08-22T00:04:07.729Z,17.38
2022-08-22T00:06:42.197Z,17.02
2022-08-22T00:09:23.910Z,17.52
2022-08-22T00:11:57.753Z,16.83
2022-08-22T00:14:35.551Z,17.25
2022-08-22T00:17:13.372Z,18.00
2022-08-22T00:19:50.914Z,17.48
2022-08-22T00:22:24.408Z,17.33
2022-08-22T00:24:57.128Z,17.42
2022-08-22T00:27:31.633Z,17.95
2022-08-22T00:30:08.020Z,17.05
2022-08-22T00:32:42.713Z,17.08
2022-08-22T00:35:20.365Z,17.08
2022-08-22T00:37:59.333Z,19.27
2022-08-22T00:40:39.927Z,18.83
2022-08-22T00:43:33.354Z,18.25
2022-08-22T00:46:23.045Z,17.92
2022-08-22T00:51:53.845Z,17.50
2022-08-22T00:54:39.305Z,17.88
2022-08-22T00:57:25.723Z,17.75
2022-08-22T01:00:11.235Z,17.55
2022-08-22T01:03:10.633Z,17.95
2022-08-22T01:05:59.460Z,17.63
2022-08-22T01:09:01.365Z,16.63
2022-08-22T01:11:46.526Z,16.42
2022-08-22T01:14:34.702Z,16.70
2022-08-22T01:17:35.935Z,17.30
2022-08-22T01:20:38.794Z,18.30
2022-08-22T01:23:43.236Z,17.67
2022-08-22T01:26:50.572Z,17.45
2022-08-22T01:29:48.571Z,20.00
2022-08-22T01:32:57.325Z,18.75
2022-08-22T01:35:55.210Z,17.83
2022-08-22T01:38:40.981Z,17.70
2022-08-22T01:41:48.924Z,17.90
2022-08-22T01:44:40.790Z,17.70
2022-08-22T01:47:13.407Z,18.00
2022-08-22T01:49:45.116Z,18.05
2022-08-22T01:52:19.587Z,17.50
2022-08-22T01:54:54.953Z,18.00
2022-08-22T01:57:23.890Z,16.83
2022-08-22T01:59:54.452Z,17.05
2022-08-22T02:02:44.384Z,17.15
2022-08-22T02:05:24.581Z,16.90
2022-08-22T02:07:59.516Z,18.45
2022-08-22T02:10:43.396Z,16.90
2022-08-22T02:13:25.393Z,17.50
2022-08-22T02:16:06.549Z,16.75
2022-08-22T02:18:49.183Z,17.08
2022-08-22T02:21:23.244Z,17.08
2022-08-22T02:23:56.324Z,17.75
2022-08-22T02:26:29.236Z,18.25
2022-08-22T02:29:00.996Z,18.58
2022-08-22T02:31:40.700Z,18.17
2022-08-22T02:36:54.117Z,18.30
2022-08-22T02:39:34.943Z,35.00
2022-08-22T02:42:14.704Z,20.05
2022-08-22T02:44:52.954Z,18.67
2022-08-22T02:47:31.463Z,18.80
2022-08-22T02:50:12.193Z,18.63
2022-08-22T02:52:54.936Z,18.75
2022-08-22T02:55:36.325Z,18.08
2022-08-22T02:58:08.837Z,18.27
2022-08-22T03:00:46.301Z,18.63
2022-08-22T03:03:21.632Z,18.63
2022-08-22T03:06:00.858Z,19.60
2022-08-22T03:08:33.662Z,18.48
2022-08-22T03:11:11.465Z,19.17
2022-08-22T03:13:54.114Z,19.88
2022-08-22T03:16:30.222Z,20.85
2022-08-22T03:19:04.673Z,20.77
2022-08-22T03:21:36.779Z,21.73
2022-08-22T03:24:11.570Z,22.42
2022-08-22T03:26:46.725Z,23.10
2022-08-22T03:29:20.484Z,22.25
2022-08-22T03:32:11.610Z,22.48
2022-08-22T03:34:54.057Z,23.70
2022-08-22T03:37:25.877Z,23.00
2022-08-22T03:40:00.012Z,23.38
2022-08-22T03:43:14.360Z,23.98
2022-08-22T03:46:28.120Z,22.95
2022-08-22T03:49:32.761Z,23.98
2022-08-22T03:52:32.735Z,26.27
2022-08-22T03:55:17.832Z,28.35
2022-08-22T03:58:27.473Z,28.65
2022-08-22T04:01:20.074Z,28.20
2022-08-22T04:04:23.441Z,29.58
2022-08-22T04:07:15.838Z,29.70
2022-08-22T04:10:38.753Z,26.48
2022-08-22T04:13:48.256Z,24.63
2022-08-22T04:16:58.751Z,27.13
2022-08-22T04:19:46.165Z,24.27
2022-08-22T04:22:29.910Z,24.73
2022-08-22T04:25:07.591Z,26.35
2022-08-22T04:27:41.502Z,24.95
2022-08-22T04:30:24.618Z,24.45
2022-08-22T04:32:57.487Z,24.95
2022-08-22T04:35:31.404Z,26.05
2022-08-22T04:38:02.664Z,26.13
2022-08-22T04:40:37.281Z,26.80
2022-08-22T04:43:14.349Z,25.33
2022-08-22T04:45:48.839Z,27.83
2022-08-22T04:48:24.015Z,26.30
2022-08-22T04:50:57.383Z,26.55
2022-08-22T04:53:52.400Z,26.83
2022-08-22T04:56:27.585Z,27.60
2022-08-22T04:58:58.578Z,28.77
2022-08-22T05:01:38.800Z,29.00
2022-08-22T05:04:09.249Z,29.08
2022-08-22T05:06:42.234Z,30.60
2022-08-22T05:09:16.245Z,32.47
2022-08-22T05:11:45.189Z,31.52
2022-08-22T05:14:18.689Z,29.17
2022-08-22T05:16:53.191Z,32.05
2022-08-22T05:19:31.721Z,30.30
2022-08-22T05:21:59.858Z,29.73
2022-08-22T05:24:33.827Z,29.20
2022-08-22T05:27:09.750Z,29.02
2022-08-22T05:29:40.890Z,29.67
2022-08-22T05:32:16.291Z,30.00
2022-08-22T05:34:46.783Z,28.65
2022-08-22T05:37:20.251Z,29.23
2022-08-22T05:39:51.304Z,27.50
2022-08-22T05:42:25.448Z,27.73
2022-08-22T05:44:54.942Z,27.25
2022-08-22T05:47:30.938Z,28.17
2022-08-22T05:50:02.627Z,28.23
2022-08-22T05:52:42.349Z,26.60
2022-08-22T05:55:22.199Z,28.70
2022-08-22T05:58:00.517Z,29.10
2022-08-22T06:00:33.105Z,27.48
2022-08-22T06:03:16.454Z,27.08
2022-08-22T06:05:48.125Z,26.70
2022-08-22T06:08:21.281Z,27.42
2022-08-22T06:10:51.866Z,26.95
2022-08-22T06:13:24.712Z,26.73
2022-08-22T06:15:59.327Z,27.25
2022-08-22T06:18:31.484Z,26.38
2022-08-22T06:21:01.895Z,25.75
2022-08-22T06:23:35.253Z,26.90
2022-08-22T06:26:04.285Z,26.40
2022-08-22T06:28:38.881Z,26.60
2022-08-22T06:31:26.354Z,27.08
2022-08-22T06:34:00.339Z,27.02
2022-08-22T06:36:28.105Z,26.85
2022-08-22T06:39:07.454Z,26.35
2022-08-22T06:41:39.984Z,25.60
2022-08-22T06:44:16.490Z,26.30
2022-08-22T06:46:46.579Z,25.33
2022-08-22T06:49:16.206Z,26.05
2022-08-22T06:54:18.065Z,24.92
2022-08-22T06:56:48.863Z,25.30
2022-08-22T06:59:21.390Z,24.63
2022-08-22T07:01:52.560Z,24.35
2022-08-22T07:04:26.186Z,24.45
2022-08-22T07:06:56.543Z,23.23
2022-08-22T07:09:28.030Z,23.00
2022-08-22T07:11:58.294Z,22.05
2022-08-22T07:14:28.877Z,21.55
2022-08-22T07:16:58.984Z,20.48
2022-08-22T07:19:30.892Z,21.30
2022-08-22T07:22:09.919Z,20.58
2022-08-22T07:24:40.685Z,21.20
2022-08-22T07:27:17.941Z,21.17
2022-08-22T07:29:55.274Z,20.83
2022-08-22T07:32:29.544Z,19.50
2022-08-22T07:35:09.938Z,17.63
2022-08-22T07:37:51.836Z,19.63
2022-08-22T07:40:25.743Z,16.85
2022-08-22T07:42:59.489Z,17.45
2022-08-22T07:45:34.951Z,17.10
2022-08-22T07:48:25.044Z,17.45
2022-08-22T07:51:04.103Z,17.02
2022-08-22T07:53:39.182Z,16.25
2022-08-22T07:56:12.137Z,16.52
2022-08-22T07:58:42.136Z,19.08
2022-08-22T08:01:11.592Z,25.50
2022-08-22T08:03:39.569Z,16.75
2022-08-22T08:08:41.352Z,15.75
2022-08-22T08:11:11.195Z,14.95
2022-08-22T08:13:42.445Z,15.95
2022-08-22T08:16:16.595Z,13.85
2022-08-22T08:18:47.126Z,14.93
2022-08-22T08:21:26.139Z,14.32
2022-08-22T08:23:54.990Z,14.82
2022-08-22T08:26:30.137Z,14.18
2022-08-22T08:28:59.148Z,13.95
2022-08-22T08:31:30.823Z,15.65
2022-08-22T08:34:05.542Z,15.38
2022-08-22T08:36:48.642Z,16.45
2022-08-22T08:39:24.267Z,15.73
2022-08-22T08:42:17.838Z,15.85
2022-08-22T08:45:07.396Z,18.10
2022-08-22T08:50:33.741Z,17.55
2022-08-22T08:53:34.462Z,19.60
2022-08-22T08:56:12.956Z,19.15
2022-08-22T08:58:50.904Z,17.92
2022-08-22T09:01:45.593Z,17.90
2022-08-22T09:04:38.322Z,17.08
2022-08-22T09:07:35.754Z,17.65
2022-08-22T09:10:29.530Z,16.38
2022-08-22T09:13:29.541Z,16.13
2022-08-22T09:16:17.127Z,15.85
2022-08-22T09:19:11.718Z,16.95
2022-08-22T09:22:27.973Z,17.13
2022-08-22T09:25:24.023Z,15.48
2022-08-22T09:27:59.698Z,15.65
2022-08-22T09:30:54.188Z,15.52
2022-08-22T09:33:30.106Z,16.85
2022-08-22T09:36:02.563Z,16.33
2022-08-22T09:38:47.779Z,15.00
2022-08-22T09:41:27.503Z,15.60
2022-08-22T09:44:13.796Z,15.02
2022-08-22T09:47:03.197Z,16.00
2022-08-22T09:49:45.762Z,15.30
2022-08-22T09:52:33.291Z,13.95
2022-08-22T09:55:11.768Z,14.82
2022-08-22T09:57:52.998Z,15.27
2022-08-22T10:00:25.996Z,14.70
2022-08-22T10:03:06.079Z,14.38
2022-08-22T10:05:44.890Z,14.13
2022-08-22T10:08:31.215Z,14.25
2022-08-22T10:11:16.265Z,14.32
2022-08-22T10:14:01.803Z,14.00
2022-08-22T10:16:53.083Z,14.40
2022-08-22T10:19:27.533Z,16.42
2022-08-22T10:22:19.604Z,13.40
2022-08-22T10:24:56.059Z,14.52
2022-08-22T10:27:51.239Z,15.45
2022-08-22T10:30:25.862Z,14.68
2022-08-22T10:33:02.626Z,15.18
2022-08-22T10:35:34.391Z,14.82
2022-08-22T10:38:07.277Z,14.40
2022-08-22T10:40:48.253Z,13.85
2022-08-22T10:43:21.397Z,13.50
2022-08-22T10:46:03.764Z,13.30
2022-08-22T10:48:42.047Z,12.95
2022-08-22T10:51:19.186Z,13.20
2022-08-22T10:54:00.142Z,13.20
2022-08-22T10:56:35.213Z,12.60
2022-08-22T10:59:16.721Z,13.52
2022-08-22T11:01:54.505Z,12.85
2022-08-22T11:04:43.727Z,13.35
2022-08-22T11:07:21.432Z,13.35
2022-08-22T11:09:57.457Z,14.32
2022-08-22T11:12:35.081Z,13.88
2022-08-22T11:15:14.790Z,13.70
2022-08-22T11:18:20.741Z,13.70
2022-08-22T11:20:59.378Z,13.10
2022-08-22T11:23:39.071Z,12.90
2022-08-22T11:26:29.901Z,13.30
2022-08-22T11:29:14.859Z,13.27
2022-08-22T11:31:52.804Z,13.30
2022-08-22T11:34:38.909Z,12.80
2022-08-22T11:37:13.762Z,13.15
2022-08-22T11:39:44.446Z,13.20
2022-08-22T11:42:21.845Z,12.57
2022-08-22T11:44:54.697Z,12.63
2022-08-22T11:47:26.705Z,12.80
2022-08-22T11:50:03.646Z,13.68
2022-08-22T11:53:04.577Z,13.55
2022-08-22T11:55:38.395Z,11.82
2022-08-22T11:58:22.302Z,12.43
2022-08-22T12:01:01.534Z,12.70
2022-08-22T12:03:58.433Z,12.10
2022-08-22T12:06:54.530Z,12.10
2022-08-22T12:09:41.890Z,12.75
2022-08-22T12:12:26.617Z,11.90
2022-08-22T12:15:01.366Z,12.20
2022-08-22T12:18:10.886Z,12.68
2022-08-22T12:20:54.894Z,12.10
2022-08-22T12:23:52.032Z,13.57
2022-08-22T12:26:30.978Z,13.07
2022-08-22T12:29:16.897Z,12.45
2022-08-22T12:32:15.702Z,12.95
2022-08-22T12:34:55.098Z,12.95
2022-08-22T12:37:29.679Z,12.73
2022-08-22T12:40:26.325Z,13.40
2022-08-22T12:43:18.831Z,12.57
2022-08-22T12:46:18.415Z,12.80
2022-08-22T12:49:07.629Z,12.50
2022-08-22T12:51:55.916Z,13.00
2022-08-22T12:55:07.420Z,12.13
2022-08-22T12:57:50.473Z,12.23
2022-08-22T13:00:30.346Z,12.82
2022-08-22T13:03:02.569Z,12.30
2022-08-22T13:05:34.311Z,12.90
2022-08-22T13:08:12.871Z,14.63
2022-08-22T13:10:45.224Z,12.13
2022-08-22T13:13:31.529Z,12.15
2022-08-22T13:16:07.585Z,12.18
2022-08-22T13:18:39.576Z,13.80
2022-08-22T13:21:17.158Z,12.45
2022-08-22T13:23:54.525Z,12.57
2022-08-22T13:26:32.063Z,12.73
2022-08-22T13:31:58.319Z,12.30
2022-08-22T13:34:40.161Z,11.80
2022-08-22T13:37:14.280Z,12.23
2022-08-22T13:39:46.708Z,12.48
2022-08-22T13:42:20.365Z,12.15
2022-08-22T13:45:04.554Z,12.10
2022-08-22T13:47:39.222Z,12.68
2022-08-22T13:50:12.808Z,12.13
2022-08-22T13:52:52.573Z,12.15
2022-08-22T13:55:30.875Z,12.52
2022-08-22T13:58:12.565Z,12.90
2022-08-22T14:01:25.587Z,12.38
2022-08-22T14:04:00.895Z,12.57
2022-08-22T14:06:43.732Z,12.75
2022-08-22T14:09:31.326Z,12.10
2022-08-22T14:12:12.628Z,12.93
2022-08-22T14:14:43.565Z,12.55
2022-08-22T14:17:20.907Z,12.20
2022-08-22T14:19:59.422Z,11.95
2022-08-22T14:22:34.851Z,11.55
2022-08-22T14:25:07.468Z,12.13
2022-08-22T14:27:37.244Z,11.90
2022-08-22T14:30:14.914Z,12.80
2022-08-22T14:32:47.493Z,12.50
2022-08-22T14:35:23.361Z,12.45
2022-08-22T14:38:17.500Z,13.13
2022-08-22T14:40:47.135Z,13.00
2022-08-22T14:43:22.667Z,12.20
2022-08-22T14:45:57.276Z,12.73
2022-08-22T14:48:35.433Z,13.32
2022-08-22T14:51:10.814Z,12.45
2022-08-22T14:53:39.691Z,12.73
2022-08-22T14:56:11.976Z,12.93
2022-08-22T14:58:49.398Z,13.73
2022-08-22T15:01:19.752Z,13.48
2022-08-22T15:03:54.216Z,14.00
2022-08-22T15:06:36.497Z,14.73
2022-08-22T15:09:08.467Z,14.63
2022-08-22T15:11:37.914Z,14.80
2022-08-22T15:14:21.018Z,14.95
2022-08-22T15:16:53.899Z,14.30
2022-08-22T15:19:25.779Z,14.77
2022-08-22T15:22:13.676Z,14.98
2022-08-22T15:24:45.015Z,14.07
2022-08-22T15:27:13.189Z,15.10
2022-08-22T15:29:50.781Z,14.13
2022-08-22T15:32:22.518Z,14.40
2022-08-22T15:34:52.248Z,14.20
2022-08-22T15:37:33.586Z,16.08
2022-08-22T15:40:08.489Z,15.57
2022-08-22T15:42:44.228Z,16.23
2022-08-22T15:45:31.100Z,16.25
2022-08-22T15:48:04.903Z,15.50
2022-08-22T15:50:37.122Z,16.92
2022-08-22T15:53:21.284Z,17.17
2022-08-22T15:56:23.801Z,17.58
2022-08-22T15:59:09.914Z,16.77
2022-08-22T16:01:44.002Z,17.38
2022-08-22T16:04:32.755Z,16.77
2022-08-22T16:07:02.260Z,17.33
2022-08-22T16:09:39.349Z,17.50
2022-08-22T16:12:24.850Z,19.42
2022-08-22T16:14:53.498Z,18.23
2022-08-22T16:17:45.955Z,17.58
2022-08-22T16:20:46.054Z,19.25
2022-08-22T16:23:13.514Z,18.33
2022-08-22T16:26:17.375Z,19.08
2022-08-22T16:28:58.542Z,18.27
2022-08-22T16:31:30.842Z,17.30
2022-08-22T16:34:19.340Z,17.83
2022-08-22T16:36:49.935Z,17.48
2022-08-22T16:39:34.704Z,16.77
2022-08-22T16:42:26.149Z,17.55
2022-08-22T16:44:58.565Z,16.48
2022-08-22T16:47:41.211Z,16.00
2022-08-22T16:50:25.447Z,15.88
2022-08-22T16:53:00.265Z,14.82
2022-08-22T16:55:46.461Z,16.23
2022-08-22T16:58:40.258Z,15.20
2022-08-22T17:01:25.339Z,16.27
2022-08-22T17:04:04.457Z,15.02
2022-08-22T17:06:46.423Z,14.95
2022-08-22T17:09:40.583Z,15.32
2022-08-22T17:12:19.965Z,14.43
2022-08-22T17:14:56.733Z,14.52
2022-08-22T17:17:35.194Z,14.48
2022-08-22T17:20:18.279Z,14.73
2022-08-22T17:22:58.574Z,15.15
2022-08-22T17:25:34.071Z,14.82
2022-08-22T17:28:12.295Z,14.90
2022-08-22T17:30:48.126Z,14.48
2022-08-22T17:33:29.907Z,14.23
2022-08-22T17:36:26.367Z,14.00
2022-08-22T17:39:06.635Z,14.48
2022-08-22T17:41:45.371Z,13.88
2022-08-22T17:44:18.825Z,14.17
2022-08-22T17:46:53.245Z,14.15
2022-08-22T17:49:29.264Z,13.82
2022-08-22T17:52:05.695Z,13.88
2022-08-22T17:54:37.529Z,14.88
2022-08-22T17:57:09.198Z,14.95
2022-08-22T17:59:45.432Z,15.18
2022-08-22T18:02:17.598Z,14.68
2022-08-22T18:04:52.395Z,14.80
2022-08-22T18:07:55.986Z,15.38
2022-08-22T18:10:32.840Z,14.65
2022-08-22T18:13:07.299Z,14.35
2022-08-22T18:15:44.729Z,14.30
2022-08-22T18:18:29.541Z,14.45
2022-08-22T18:21:03.064Z,14.35
2022-08-22T18:23:39.891Z,14.20
2022-08-22T18:26:20.612Z,14.82
2022-08-22T18:28:54.413Z,14.63
2022-08-22T18:31:38.681Z,14.60
2022-08-22T18:34:18.948Z,14.73
2022-08-22T18:36:55.462Z,14.93
2022-08-22T18:39:40.749Z,15.23
2022-08-22T18:42:22.942Z,15.32
2022-08-22T18:44:50.483Z,15.05
2022-08-22T18:47:22.810Z,15.27
2022-08-22T18:49:53.790Z,15.30
2022-08-22T18:52:38.581Z,15.43
2022-08-22T18:55:39.514Z,15.18
2022-08-22T18:58:45.782Z,16.23
2022-08-22T19:01:36.286Z,16.40
2022-08-22T19:04:41.916Z,16.10
2022-08-22T19:07:40.858Z,16.55
2022-08-22T19:10:22.622Z,16.50
2022-08-22T19:13:11.705Z,16.05
2022-08-22T19:15:54.509Z,16.00
2022-08-22T19:18:37.945Z,16.15
2022-08-22T19:21:21.273Z,16.10
2022-08-22T19:23:52.839Z,16.55
2022-08-22T19:26:33.520Z,16.17
2022-08-22T19:29:08.740Z,15.63
2022-08-22T19:31:50.376Z,14.68
2022-08-22T19:34:38.861Z,15.07
2022-08-22T19:37:50.707Z,15.45
2022-08-22T19:40:53.851Z,15.30
2022-08-22T19:43:28.662Z,15.45
2022-08-22T19:45:57.712Z,15.48
2022-08-22T19:48:27.913Z,15.75
2022-08-22T19:51:11.564Z,15.30
2022-08-22T19:54:16.800Z,15.63
2022-08-22T19:57:05.282Z,15.90
2022-08-22T19:59:50.486Z,15.90
2022-08-22T20:02:26.814Z,17.08
2022-08-22T20:05:07.314Z,16.42
2022-08-22T20:07:49.160Z,16.48
2022-08-22T20:10:30.474Z,17.17
2022-08-22T20:13:07.730Z,16.40
2022-08-22T20:16:13.117Z,16.50
2022-08-22T20:19:13.492Z,17.40
2022-08-22T20:21:47.947Z,17.88
2022-08-22T20:24:21.276Z,17.67
2022-08-22T20:27:10.409Z,18.55
2022-08-22T20:29:45.587Z,18.67
2022-08-22T20:32:19.209Z,18.38
2022-08-22T20:34:50.381Z,18.75
2022-08-22T20:37:50.658Z,18.77
2022-08-22T20:40:55.261Z,17.27
2022-08-22T20:43:17.492Z,18.80
2022-08-22T20:46:00.274Z,19.38
2022-08-22T20:48:38.672Z,18.90
2022-08-22T20:51:07.819Z,19.75
2022-08-22T20:53:36.704Z,19.27
2022-08-22T20:56:04.791Z,19.02
2022-08-22T20:58:44.122Z,19.58
2022-08-22T21:01:15.486Z,19.42
2022-08-22T21:03:46.011Z,20.23
2022-08-22T21:06:16.542Z,20.27
2022-08-22T21:08:45.600Z,22.13
2022-08-22T21:11:28.919Z,21.25
2022-08-22T21:13:56.341Z,21.92
2022-08-22T21:16:31.887Z,20.95
2022-08-22T21:19:17.851Z,21.48
2022-08-22T21:21:45.265Z,21.10
2022-08-22T21:24:13.113Z,20.02
2022-08-22T21:26:51.113Z,22.13
2022-08-22T21:29:24.099Z,21.02
2022-08-22T21:32:04.346Z,20.35
2022-08-22T21:34:36.486Z,21.52
2022-08-22T21:37:09.607Z,20.85
2022-08-22T21:39:43.961Z,20.83
2022-08-22T21:42:25.274Z,19.67
2022-08-22T21:44:57.313Z,20.80
2022-08-22T21:47:31.503Z,21.30
2022-08-22T21:50:27.258Z,20.50
2022-08-22T21:53:09.160Z,20.05
2022-08-22T21:55:39.360Z,20.17
2022-08-22T21:58:35.193Z,20.13
2022-08-22T22:01:27.622Z,20.27
2022-08-22T22:03:57.766Z,19.92
2022-08-22T22:06:25.568Z,20.55
2022-08-22T22:08:52.983Z,19.15
2022-08-22T22:11:20.502Z,19.52
2022-08-22T22:13:47.936Z,19.60
2022-08-22T22:16:21.175Z,19.73
2022-08-22T22:18:48.583Z,20.42
2022-08-22T22:21:17.489Z,20.17
2022-08-22T22:23:44.895Z,20.35
2022-08-22T22:26:14.398Z,20.17
2022-08-22T22:28:44.926Z,19.53
2022-08-22T22:31:12.351Z,20.98
2022-08-22T22:33:42.334Z,20.40
2022-08-22T22:36:15.957Z,20.30
2022-08-22T22:38:45.215Z,19.45
2022-08-22T22:41:20.286Z,20.92
2022-08-22T22:43:47.702Z,20.85
2022-08-22T22:46:15.109Z,19.60
2022-08-22T22:48:42.534Z,20.42
2022-08-22T22:51:14.390Z,21.02
2022-08-22T22:53:52.572Z,21.02
2022-08-22T22:56:23.342Z,20.27
2022-08-22T22:59:00.828Z,20.33
2022-08-22T23:02:00.165Z,19.75
2022-08-22T23:04:27.930Z,20.58
2022-08-22T23:06:55.404Z,20.30
2022-08-22T23:09:22.833Z,20.42
2022-08-22T23:12:01.668Z,20.25
2022-08-22T23:14:33.295Z,19.30
2022-08-22T23:17:01.222Z,20.20
2022-08-22T23:19:29.152Z,20.13
2022-08-22T23:21:57.939Z,22.08
2022-08-22T23:24:26.418Z,22.10
2022-08-22T23:26:53.973Z,20.80
2022-08-22T23:29:23.084Z,21.08
2022-08-22T23:34:21.473Z,21.05
2022-08-22T23:36:50.597Z,22.15
2022-08-22T23:39:19.231Z,19.65
2022-08-22T23:41:47.264Z,20.17
2022-08-22T23:44:17.201Z,20.95
2022-08-22T23:46:46.590Z,21.38
2022-08-22T23:49:21.803Z,20.13
2022-08-22T23:51:53.946Z,22.90
2022-08-22T23:54:22.035Z,22.17
2022-08-22T23:56:52.497Z,23.50
2022-08-22T23:59:21.865Z,24.25
